createdAt,value
2023-04-10T00:04:35.456Z,99926.09
2023-04-10T00:09:38.449Z,99926.06
2023-04-10T00:14:41.382Z,99919.84
2023-04-10T00:19:45.676Z,99919.50
2023-04-10T00:24:48.611Z,99907.13
2023-04-10T00:29:51.484Z,99906.88
2023-04-10T00:34:56.070Z,99909.31
2023-04-10T00:39:59.022Z,99901.03
2023-04-10T00:45:02.012Z,99896.66
2023-04-10T00:50:07.564Z,99906.84
2023-04-10T00:55:11.832Z,99901.59
2023-04-10T01:00:15.849Z,99891.88
2023-04-10T01:05:20.255Z,99886.25
2023-04-10T01:10:34.409Z,99894.47
2023-04-10T01:15:45.424Z,99902.78
2023-04-10T01:20:49.675Z,99905.97
2023-04-10T01:25:57.802Z,99910.88
2023-04-10T01:31:03.795Z,99906.34
2023-04-10T01:36:08.680Z,99903.16
2023-04-10T01:41:11.630Z,99914.94
2023-04-10T01:46:17.556Z,99916.50
2023-04-10T01:51:20.857Z,99894.13
2023-04-10T01:56:25.004Z,99895.69
2023-04-10T02:01:30.469Z,99884.03
2023-04-10T02:06:42.599Z,99887.00
2023-04-10T02:11:50.551Z,99886.09
2023-04-10T02:16:57.440Z,99889.06
2023-04-10T02:22:01.636Z,99879.06
2023-04-10T02:27:04.612Z,99873.88
2023-04-10T02:32:09.162Z,99875.44
2023-04-10T02:37:12.046Z,99867.94
2023-04-10T02:42:15.073Z,99875.44
2023-04-10T02:47:20.483Z,99875.31
2023-04-10T02:52:24.660Z,99867.00
2023-04-10T02:57:28.722Z,99875.88
2023-04-10T03:02:33.285Z,99873.44
2023-04-10T03:07:44.513Z,99876.19
2023-04-10T03:12:48.777Z,99883.44
2023-04-10T03:17:53.209Z,99875.66
2023-04-10T03:22:56.277Z,99887.94
2023-04-10T03:28:02.558Z,99873.72
2023-04-10T03:33:07.282Z,99875.75
2023-04-10T03:38:10.245Z,99874.25
2023-04-10T03:43:13.198Z,99877.09
2023-04-10T03:48:17.936Z,99874.22
2023-04-10T03:53:23.081Z,99874.97
2023-04-10T03:58:28.140Z,99870.00
2023-04-10T04:03:33.963Z,99882.44
2023-04-10T04:08:38.634Z,99878.53
2023-04-10T04:13:53.632Z,99897.06
2023-04-10T04:19:24.032Z,99893.50
2023-04-10T04:24:42.790Z,99904.84
2023-04-10T04:29:55.555Z,99897.16
2023-04-10T04:35:02.969Z,99906.16
2023-04-10T04:40:32.395Z,99905.47
2023-04-10T04:45:49.536Z,99901.00
2023-04-10T04:51:09.094Z,99900.25
2023-04-10T04:56:22.792Z,99903.16
2023-04-10T05:01:42.517Z,99910.06
2023-04-10T05:07:07.112Z,99913.13
2023-04-10T05:12:35.931Z,99900.91
2023-04-10T05:18:14.368Z,99904.84
2023-04-10T05:23:37.234Z,99909.69
2023-04-10T05:29:05.604Z,99917.66
2023-04-10T05:34:31.512Z,99912.47
2023-04-10T05:39:46.961Z,99916.84
2023-04-10T05:45:12.724Z,99921.53
2023-04-10T05:50:41.498Z,99914.44
2023-04-10T05:56:09.846Z,99916.22
2023-04-10T06:01:42.791Z,99914.97
2023-04-10T06:06:45.787Z,99909.84
2023-04-10T06:11:50.150Z,99917.84
2023-04-10T06:16:56.816Z,99910.09
2023-04-10T06:21:59.886Z,99916.94
2023-04-10T06:27:04.158Z,99916.31
2023-04-10T06:32:07.028Z,99896.97
2023-04-10T06:37:13.506Z,99898.78
2023-04-10T06:42:18.814Z,99892.09
2023-04-10T06:47:33.050Z,99902.63
2023-04-10T06:52:35.971Z,99902.31
2023-04-10T06:57:40.352Z,99894.78
2023-04-10T07:02:43.248Z,99893.84
2023-04-10T07:07:47.552Z,99896.31
2023-04-10T07:12:51.890Z,99886.00
2023-04-10T07:17:56.347Z,99896.44
2023-04-10T07:22:59.317Z,99887.53
2023-04-10T07:28:03.605Z,99883.94
2023-04-10T07:33:06.837Z,99876.75
2023-04-10T07:38:09.930Z,99874.28
2023-04-10T07:43:14.198Z,99870.41
2023-04-10T07:48:17.099Z,99862.50
2023-04-10T07:53:20.028Z,99868.44
2023-04-10T07:58:24.274Z,99865.41
2023-04-10T08:03:27.816Z,99867.31
2023-04-10T08:08:30.769Z,99852.94
2023-04-10T08:13:35.258Z,99856.78
2023-04-10T08:18:38.144Z,99862.47
2023-04-10T08:23:41.043Z,99853.59
2023-04-10T08:28:47.314Z,99849.66
2023-04-10T08:33:50.609Z,99846.34
2023-04-10T08:38:53.530Z,99845.13
2023-04-10T08:43:58.383Z,99840.97
2023-04-10T08:49:04.571Z,99831.34
2023-04-10T08:54:11.924Z,99824.16
2023-04-10T08:59:16.361Z,99827.16
2023-04-10T09:04:19.357Z,99822.22
2023-04-10T09:09:22.371Z,99820.81
2023-04-10T09:14:28.597Z,99809.72
2023-04-10T09:19:32.370Z,99808.72
2023-04-10T09:24:37.706Z,99807.81
2023-04-10T09:29:46.019Z,99809.97
2023-04-10T09:34:57.276Z,99810.31
2023-04-10T09:40:00.692Z,99803.75
2023-04-10T09:45:06.435Z,99794.22
2023-04-10T09:50:09.883Z,99789.38
2023-04-10T09:55:18.570Z,99779.38
2023-04-10T10:00:22.874Z,99765.72
2023-04-10T10:05:28.131Z,99757.75
2023-04-10T10:10:31.163Z,99760.34
2023-04-10T10:15:39.976Z,99748.47
2023-04-10T10:20:47.231Z,99732.41
2023-04-10T10:25:52.314Z,99731.88
2023-04-10T10:30:57.025Z,99714.59
2023-04-10T10:36:01.165Z,99712.16
2023-04-10T10:41:13.950Z,99704.44
2023-04-10T10:46:23.568Z,99703.75
2023-04-10T10:51:47.763Z,99690.00
2023-04-10T10:56:50.718Z,99687.34
2023-04-10T11:02:16.676Z,99684.50
2023-04-10T11:07:20.078Z,99667.47
2023-04-10T11:12:24.229Z,99655.13
2023-04-10T11:17:51.850Z,99636.38
2023-04-10T11:23:12.347Z,99634.19
2023-04-10T11:28:36.817Z,99634.22
2023-04-10T11:33:41.592Z,99617.31
2023-04-10T11:38:55.273Z,99611.47
2023-04-10T11:43:59.306Z,99606.91
2023-04-10T11:49:05.306Z,99593.09
2023-04-10T11:54:09.910Z,99595.34
2023-04-10T11:59:14.462Z,99578.00
2023-04-10T12:04:20.920Z,99575.25
2023-04-10T12:09:24.450Z,99561.31
2023-04-10T12:14:32.007Z,99565.88
2023-04-10T12:19:36.864Z,99564.69
2023-04-10T12:24:44.434Z,99563.91
2023-04-10T12:29:47.849Z,99557.56
2023-04-10T12:34:57.774Z,99547.72
2023-04-10T12:40:07.275Z,99547.50
2023-04-10T12:45:13.881Z,99549.06
2023-04-10T12:50:20.770Z,99540.25
2023-04-10T12:55:23.693Z,99533.56
2023-04-10T13:00:26.723Z,99535.13
2023-04-10T13:05:31.130Z,99526.19
2023-04-10T13:10:34.031Z,99525.25
2023-04-10T13:15:36.947Z,99517.91
2023-04-10T13:20:42.094Z,99511.31
2023-04-10T13:25:45.115Z,99510.66
2023-04-10T13:30:48.069Z,99502.03
2023-04-10T13:35:52.346Z,99493.56
2023-04-10T13:40:55.351Z,99479.78
2023-04-10T13:45:58.266Z,99469.69
2023-04-10T13:51:02.569Z,99463.56
2023-04-10T13:56:06.514Z,99458.44
2023-04-10T14:01:09.560Z,99458.72
2023-04-10T14:06:14.255Z,99442.25
2023-04-10T14:11:17.346Z,99438.09
2023-04-10T14:16:20.321Z,99428.44
2023-04-10T14:21:24.711Z,99423.22
2023-04-10T14:26:27.825Z,99421.66
2023-04-10T14:31:30.815Z,99416.66
2023-04-10T14:36:35.086Z,99401.34
2023-04-10T14:41:38.091Z,99400.84
2023-04-10T14:46:41.070Z,99405.19
2023-04-10T14:51:48.407Z,99386.56
2023-04-10T14:56:51.661Z,99386.81
2023-04-10T15:01:54.861Z,99377.88
2023-04-10T15:06:59.279Z,99364.44
2023-04-10T15:12:02.205Z,99370.19
2023-04-10T15:17:05.498Z,99347.03
2023-04-10T15:22:10.002Z,99342.06
2023-04-10T15:27:12.902Z,99331.72
2023-04-10T15:32:15.987Z,99328.63
2023-04-10T15:37:20.329Z,99323.75
2023-04-10T15:42:23.182Z,99311.56
2023-04-10T15:47:26.194Z,99308.75
2023-04-10T15:52:32.735Z,99311.09
2023-04-10T15:57:36.004Z,99299.56
2023-04-10T16:02:39.501Z,99295.16
2023-04-10T16:07:44.020Z,99277.81
2023-04-10T16:12:47.009Z,99281.00
2023-04-10T16:17:49.986Z,99277.47
2023-04-10T16:22:54.619Z,99263.88
2023-04-10T16:27:57.820Z,99265.84
2023-04-10T16:33:00.767Z,99260.34
2023-04-10T16:38:05.399Z,99262.53
2023-04-10T16:43:09.476Z,99257.25
2023-04-10T16:48:12.457Z,99254.69
2023-04-10T16:53:17.761Z,99246.44
2023-04-10T16:58:20.744Z,99231.16
2023-04-10T17:03:23.706Z,99231.34
2023-04-10T17:08:28.060Z,99218.31
2023-04-10T17:13:30.983Z,99222.25
2023-04-10T17:18:34.040Z,99215.09
2023-04-10T17:23:38.281Z,99212.34
2023-04-10T17:28:44.399Z,99205.97
2023-04-10T17:33:47.380Z,99211.72
2023-04-10T17:38:54.008Z,99216.53
2023-04-10T17:43:57.338Z,99207.13
2023-04-10T17:49:01.499Z,99211.47
2023-04-10T17:54:06.098Z,99204.81
2023-04-10T17:59:09.119Z,99199.41
2023-04-10T18:04:12.041Z,99190.44
2023-04-10T18:09:16.761Z,99182.09
2023-04-10T18:14:20.258Z,99186.50
2023-04-10T18:19:23.186Z,99187.22
2023-04-10T18:24:27.582Z,99179.16
2023-04-10T18:29:32.334Z,99166.19
2023-04-10T18:34:35.986Z,99158.75
2023-04-10T18:39:40.353Z,99153.94
2023-04-10T18:44:43.273Z,99154.09
2023-04-10T18:49:46.245Z,99143.31
2023-04-10T18:54:50.594Z,99141.84
2023-04-10T18:59:53.559Z,99138.75
2023-04-10T19:04:56.558Z,99135.09
2023-04-10T19:10:00.971Z,99131.88
2023-04-10T19:15:05.618Z,99123.25
2023-04-10T19:20:09.708Z,99116.19
2023-04-10T19:25:13.978Z,99106.66
2023-04-10T19:30:16.839Z,99101.78
2023-04-10T19:35:19.697Z,99084.81
2023-04-10T19:40:24.029Z,99078.59
2023-04-10T19:45:29.152Z,99072.63
2023-04-10T19:50:32.305Z,99073.97
2023-04-10T19:55:36.555Z,99074.81
2023-04-10T20:00:39.599Z,99073.47
2023-04-10T20:05:42.582Z,99075.91
2023-04-10T20:10:47.718Z,99069.91
2023-04-10T20:15:50.962Z,99053.59
2023-04-10T20:20:54.017Z,99046.97
2023-04-10T20:25:58.250Z,99032.69
2023-04-10T20:31:01.124Z,99021.44
2023-04-10T20:36:04.228Z,98999.94
2023-04-10T20:41:08.764Z,98993.34
2023-04-10T20:46:11.713Z,99001.81
2023-04-10T20:51:14.628Z,98998.59
2023-04-10T20:56:21.090Z,98985.94
2023-04-10T21:01:24.125Z,98981.09
2023-04-10T21:06:27.066Z,98977.94
2023-04-10T21:11:31.487Z,98973.09
2023-04-10T21:16:34.859Z,98984.59
2023-04-10T21:21:37.904Z,98985.22
2023-04-10T21:26:42.235Z,98969.53
2023-04-10T21:31:45.174Z,98963.50
2023-04-10T21:36:48.238Z,98948.63
2023-04-10T21:41:52.455Z,98944.16
2023-04-10T21:46:55.369Z,98923.28
2023-04-10T21:51:59.132Z,98912.22
2023-04-10T21:57:03.447Z,98916.44
2023-04-10T22:02:06.556Z,98914.81
2023-04-10T22:07:09.547Z,98919.03
2023-04-10T22:12:13.912Z,98910.03
2023-04-10T22:17:16.770Z,98908.38
2023-04-10T22:22:21.062Z,98896.75
2023-04-10T22:27:25.833Z,98889.31
2023-04-10T22:32:28.742Z,98899.16
2023-04-10T22:37:31.680Z,98882.69
2023-04-10T22:42:35.989Z,98874.41
2023-04-10T22:47:38.953Z,98872.22
2023-04-10T22:52:41.794Z,98865.81
2023-04-10T22:57:49.590Z,98842.88
2023-04-10T23:02:52.575Z,98827.84
2023-04-10T23:07:56.316Z,98821.19
2023-04-10T23:13:00.915Z,98807.13
2023-04-10T23:18:03.794Z,98800.84
2023-04-10T23:23:06.713Z,98799.22
2023-04-10T23:28:11.173Z,98789.19
2023-04-10T23:33:14.060Z,98780.69
2023-04-10T23:38:17.063Z,98771.06
2023-04-10T23:43:21.328Z,98765.28
2023-04-10T23:48:24.220Z,98762.09
2023-04-10T23:53:27.158Z,98747.66
2023-04-10T23:58:31.462Z,98722.13
